Аэропорт: Большое Савино. Пермь

ICAO: USPP

METAR:
2024-04-22 23:00:00
USPP 222300Z 09007MPS CAVOK 11/M01 Q1024 R03/090060 TEMPO VRB16MPS 1100 TSRA SQ BKN016CB RMK QFE757
TAF:
2024-04-22 19:55:00
TAF USPP 221955Z 2221/2321 10006G17MPS 6000 -SHRA BKN040CB 
  TEMPO 2221/2306 -TSRA BKN016CB 
  BECMG 2306/2307 9999 NSW